Nearby METAR Reports

 

KCPC - Whiteville, North Carolina, USA
Distance from station: NNE 17mi, 28km
Updated: 07/22/2017 2:25am
Clear
Clear
 Wind from SSW
Wind: SSW 3 mph , 6 km/h
Temperature: 77°F , 25°C
Dew Point: 73°F , 23°C
Humidity: 89%
Barometer: 29.99 inHg , 1015.6 hPa
Clouds: Clear
Visibility: 10 miles , 16 km
2017/07/22 06:25 KCPC 220625Z AUTO 20003KT 10SM CLR 25/23 A2999 RMK AO2 T02470233
KCRE - North Myrtle Bea, South Carolina, USA
Distance from station: SSE 19mi, 31km
Updated: 07/22/2017 1:53am
Clear
Clear
 Wind from SW
Wind: SW 9 mph , 15 km/h
Temperature: 79°F , 26°C
Dew Point: 77°F , 25°C
Humidity: 94%
Barometer: 30.00 inHg , 1015.9 hPa
Clouds: Clear
Visibility: 10 miles , 16 km
2017/07/22 05:53 KCRE 220553Z AUTO 23008KT 10SM CLR 26/25 A3000 RMK AO1 SLP160 T02610250 10278 20261 56008
 
KHYW - Conway-Horry Cty, South Carolina, USA
Distance from station: SW 22mi, 35km
Updated: 07/22/2017 2:35am
Clear
Clear
 Wind from SSW
Wind: SSW 3 mph , 6 km/h
Temperature: 73°F , 23°C
Dew Point: 73°F , 23°C
Humidity: 100%
Barometer: 30.00 inHg , 1015.9 hPa
Clouds: Clear
Visibility: 7 miles , 11 km
2017/07/22 06:35 KHYW 220635Z AUTO 21003KT 7SM CLR 23/23 A3000 RMK AO2
KMAO - Marion, South Carolina, USA
Distance from station: WNW 28mi, 45km
Updated: 07/22/2017 2:35am
Clear
Clear
 Wind from SSW
Wind: SSW 5 mph , 7 km/h
Temperature: 75°F , 24°C
Dew Point: 72°F , 22°C
Humidity: 89%
Barometer: 30.00 inHg , 1015.9 hPa
Clouds: Clear
Visibility: 7 miles , 11 km
2017/07/22 06:35 KMAO 220635Z AUTO 20004KT 7SM CLR 24/22 A3000 RMK AO2
 
KMYR - Myrtle Beach, South Carolina, USA
Distance from station: S 28mi, 45km
Updated: 07/22/2017 1:56am
Clear
Clear
 Wind from SW
Wind: SW 5 mph , 7 km/h
Temperature: 79°F , 26°C
Dew Point: 75°F , 24°C
Humidity: 89%
Barometer: 30.02 inHg , 1016.6 hPa
Clouds: Clear
Visibility: 10 miles , 16 km
2017/07/22 05:56 KMYR 220556Z AUTO 23004KT 10SM CLR 26/24 A3002 RMK AO2 SLP165 T02610244 10283 20261 56006
KLBT - Lumberton, North Carolina, USA
Distance from station: NNW 39mi, 62km
Updated: 07/22/2017 1:54am
Clear
Clear
 Wind from SSW
Wind: SSW 6 mph , 9 km/h
Temperature: 79°F , 26°C
Dew Point: 75°F , 24°C
Humidity: 89%
Barometer: 29.99 inHg , 1015.6 hPa
Clouds: Clear
Visibility: 10 miles , 16 km
2017/07/22 05:54 KLBT 220554Z AUTO 21005KT 10SM CLR 26/24 A2999 RMK AO2 SLP152 T02560239 10278 20256 58003 $
 
KSUT - Southport, North Carolina, USA
Distance from station: E 46mi, 74km
Updated: 07/18/2017 6:50am
NOT Current
Heavy rain, Overcast
Heavy rain, Overcast
 Wind from WSW
Wind: WSW 16 mph , 26 km/h, Gust: 24 mph , 39 km/h
Temperature: 73°F , 23°C
Dew Point: 70°F , 21°C
Humidity: 89%
Barometer: 30.08 inHg , 1018.6 hPa
Summary: Heavy rain
Clouds: Overcast
Visibility: 5 miles , 8 km
Cloud details: Partly cloudy 2000 ft
Mostly cloudy 7000 ft
Overcast 12000 ft
2017/07/18 10:50 KSUT 181050Z AUTO 24014G21KT 5SM +RA SCT020 BKN070 OVC120 23/21 A3008 RMK AO2 P0013 T02300212
KFLO - Florence, South Carolina, USA
Distance from station: W 50mi, 81km
Updated: 07/22/2017 1:53am
Clear
Clear
 Wind from SSW
Wind: SSW 5 mph , 7 km/h
Temperature: 79°F , 26°C
Dew Point: 75°F , 24°C
Humidity: 89%
Barometer: 30.00 inHg , 1015.9 hPa
Clouds: Clear
Visibility: 10 miles , 16 km
2017/07/22 05:53 KFLO 220553Z AUTO 21004KT 10SM CLR 26/24 A3000 RMK AO2 SLP156 T02560239 10306 20256 56006